Time;durP1;ratioP1;P1;durP2;ratioP2;P2;SDS_P1;SDS_P2;PMS_P1;PMS_P2;Temp;Humidity;BMP_temperature;BMP_pressure;BME280_temperature;BME280_humidity;BME280_pressure;Samples;Min_cycle;Max_cycle;Signal;HPM_P1;HPM_P2
2022/04/10 00:00:59;;;;;;;3.95;1.98;;;;;;;3.52;71.18;101126.94;4964668;28;20023;-70
2022/04/10 00:03:25;;;;;;;4.63;2.40;;;;;;;3.42;71.21;101123.13;4946439;28;20076;-70
2022/04/10 00:05:52;;;;;;;6.38;2.35;;;;;;;3.42;71.32;101126.56;4953247;28;20136;-70
2022/04/10 00:08:17;;;;;;;3.28;2.20;;;;;;;3.38;71.14;101119.81;4939355;28;20014;-70
2022/04/10 00:10:43;;;;;;;7.40;2.53;;;;;;;3.56;70.25;101130.25;4963139;28;20336;-70
2022/04/10 00:13:08;;;;;;;5.55;2.70;;;;;;;3.67;69.97;101138.38;4967848;28;20862;-70
2022/04/10 00:15:34;;;;;;;4.05;2.13;;;;;;;3.84;69.89;101134.00;4954705;28;20031;-70
2022/04/10 00:17:59;;;;;;;4.13;2.50;;;;;;;3.93;69.17;101125.63;4967076;28;20642;-69
2022/04/10 00:20:25;;;;;;;5.50;2.42;;;;;;;3.90;68.59;101134.47;4931369;28;20887;-69
2022/04/10 00:22:50;;;;;;;3.55;2.45;;;;;;;3.76;69.17;101140.47;4945213;28;20029;-69
2022/04/10 00:25:17;;;;;;;3.35;2.30;;;;;;;3.85;68.87;101139.16;4963294;28;20029;-69
2022/04/10 00:27:42;;;;;;;3.17;2.33;;;;;;;3.83;68.96;101137.53;4948369;28;20121;-69
2022/04/10 00:30:09;;;;;;;5.80;3.00;;;;;;;3.71;69.55;101132.03;4959558;28;20169;-68
2022/04/10 00:32:34;;;;;;;5.85;2.60;;;;;;;3.75;69.48;101135.31;4948628;28;20801;-69
2022/04/10 00:34:59;;;;;;;5.88;2.88;;;;;;;3.63;69.94;101139.44;4959103;28;20025;-69
2022/04/10 00:37:25;;;;;;;5.18;2.72;;;;;;;3.58;70.32;101133.59;4952432;28;20029;-69
2022/04/10 00:39:51;;;;;;;6.88;2.65;;;;;;;3.60;70.17;101124.75;4939095;28;20889;-70
2022/04/10 00:42:16;;;;;;;3.95;2.55;;;;;;;3.48;70.46;101135.03;4963965;28;20010;-69
2022/04/10 00:44:42;;;;;;;4.85;2.53;;;;;;;3.13;71.75;101135.09;4952459;28;20003;-71
2022/04/10 00:47:10;;;;;;;2.17;2.00;;;;;;;3.05;72.11;101130.28;4965011;28;20030;-70
2022/04/10 00:49:38;;;;;;;3.33;2.50;;;;;;;3.07;71.85;101136.25;4962821;28;20014;-70
2022/04/10 00:52:07;;;;;;;3.17;2.35;;;;;;;3.01;71.98;101139.19;4957074;28;20026;-70
2022/04/10 00:54:33;;;;;;;3.05;2.10;;;;;;;2.99;72.03;101144.50;4958156;28;20046;-69
2022/04/10 00:57:00;;;;;;;4.78;2.50;;;;;;;2.78;72.36;101146.44;4957789;28;20018;-69
2022/04/10 00:59:25;;;;;;;4.30;2.33;;;;;;;2.58;73.43;101145.66;4974583;28;20011;-70
2022/04/10 01:01:51;;;;;;;2.78;2.58;;;;;;;2.52;74.05;101147.72;4965833;28;20887;-70
2022/04/10 01:04:16;;;;;;;4.43;2.60;;;;;;;2.39;74.16;101150.06;4953928;28;20195;-70
2022/04/10 01:06:42;;;;;;;7.47;3.03;;;;;;;2.39;74.34;101148.31;4938319;28;20015;-69
2022/04/10 01:09:08;;;;;;;4.70;2.97;;;;;;;2.31;74.47;101147.81;4940698;28;20019;-70
2022/04/10 01:11:33;;;;;;;6.13;2.80;;;;;;;2.14;75.36;101155.63;4959494;28;20009;-70
2022/04/10 01:13:59;;;;;;;5.30;2.70;;;;;;;2.05;75.52;101144.69;4961333;28;20045;-70
2022/04/10 01:16:24;;;;;;;4.80;2.50;;;;;;;1.96;75.94;101146.88;4959215;28;20002;-70
2022/04/10 01:18:50;;;;;;;3.42;2.35;;;;;;;1.98;75.62;101145.91;4976811;28;20012;-69
2022/04/10 01:21:23;;;;;;;5.18;2.55;;;;;;;1.94;75.85;101144.34;4958458;28;20011;-69
2022/04/10 01:23:49;;;;;;;4.23;2.40;;;;;;;1.81;76.41;101149.28;4958314;28;20015;-70
2022/04/10 01:26:15;;;;;;;7.18;2.90;;;;;;;1.80;76.24;101146.75;4962019;28;20052;-69
2022/04/10 01:29:00;;;;;;;4.25;2.97;;;;;;;1.81;76.21;101149.28;4962206;28;20021;-70
2022/04/10 01:31:26;;;;;;;3.28;2.50;;;;;;;1.78;76.33;101143.38;4958698;28;20669;-69
2022/04/10 01:33:52;;;;;;;3.67;2.60;;;;;;;1.78;76.09;101143.38;4969340;28;20053;-70
2022/04/10 01:36:17;;;;;;;6.00;3.05;;;;;;;1.70;76.61;101141.94;4942688;28;20014;-70
2022/04/10 01:38:43;;;;;;;4.25;2.30;;;;;;;1.64;76.88;101150.06;4933770;28;20085;-70
2022/04/10 01:41:17;;;;;;;3.03;2.70;;;;;;;1.60;76.40;101145.06;4947210;28;20984;-69
2022/04/10 01:43:46;;;;;;;5.03;2.90;;;;;;;1.59;76.68;101153.78;4957912;28;20022;-69
2022/04/10 01:46:12;;;;;;;4.78;3.00;;;;;;;1.48;76.96;101144.69;4943142;28;20026;-70
2022/04/10 01:48:37;;;;;;;4.32;2.90;;;;;;;1.51;76.88;101144.53;4927799;28;20061;-69
2022/04/10 01:51:03;;;;;;;6.68;3.00;;;;;;;1.42;77.11;101146.72;4954885;28;20469;-70
2022/04/10 01:53:28;;;;;;;3.35;3.00;;;;;;;1.39;77.44;101146.84;4979567;28;20060;-70
2022/04/10 01:55:54;;;;;;;4.97;2.60;;;;;;;1.31;77.59;101142.84;4978232;28;20411;-70
2022/04/10 01:58:19;;;;;;;2.97;2.67;;;;;;;1.28;77.51;101142.09;4966375;28;20153;-70
2022/04/10 02:00:44;;;;;;;4.32;2.78;;;;;;;1.18;77.66;101150.34;4975249;28;20014;-69
2022/04/10 02:03:10;;;;;;;3.80;2.65;;;;;;;1.16;78.00;101140.88;4979907;28;20007;-70
2022/04/10 02:05:35;;;;;;;8.20;3.22;;;;;;;1.12;77.48;101139.31;4954631;28;20747;-69
2022/04/10 02:08:01;;;;;;;6.05;2.63;;;;;;;1.18;78.01;101137.31;4982964;28;20261;-69
2022/04/10 02:10:26;;;;;;;4.88;2.60;;;;;;;1.16;77.76;101133.91;4981447;28;20262;-69
2022/04/10 02:12:51;;;;;;;3.25;2.70;;;;;;;1.11;77.50;101142.84;4961527;28;20134;-68
2022/04/10 02:15:17;;;;;;;6.30;3.15;;;;;;;1.09;77.63;101137.69;4960719;28;20039;-69
2022/04/10 02:17:42;;;;;;;4.05;2.90;;;;;;;1.01;77.71;101137.16;4959217;28;20023;-68
2022/04/10 02:20:08;;;;;;;6.65;3.20;;;;;;;0.97;77.92;101143.41;4967801;28;20345;-69
2022/04/10 02:22:33;;;;;;;2.97;2.28;;;;;;;0.92;78.29;101148.84;4968280;28;21200;-70
2022/04/10 02:24:59;;;;;;;4.75;2.90;;;;;;;0.86;78.21;101146.47;4949405;28;20030;-69
2022/04/10 02:27:24;;;;;;;3.88;2.60;;;;;;;0.80;78.21;101137.16;4941185;28;20007;-71
2022/04/10 02:29:50;;;;;;;3.67;2.80;;;;;;;0.81;78.54;101145.84;4964812;28;20025;-69
2022/04/10 02:32:15;;;;;;;5.93;2.78;;;;;;;0.69;79.08;101157.59;4955532;28;20079;-69
2022/04/10 02:34:40;;;;;;;4.82;3.00;;;;;;;0.82;78.47;101160.56;4979313;28;20034;-69
2022/04/10 02:37:06;;;;;;;6.05;2.80;;;;;;;0.74;78.90;101149.63;4976545;28;20014;-69
2022/04/10 02:39:31;;;;;;;4.88;3.17;;;;;;;0.66;78.60;101153.38;4962959;28;20676;-69
2022/04/10 02:41:56;;;;;;;7.43;3.20;;;;;;;0.66;78.83;101157.72;4943137;28;20006;-69
2022/04/10 02:44:22;;;;;;;2.95;2.70;;;;;;;0.61;78.97;101155.31;4977609;28;20022;-69
2022/04/10 02:46:47;;;;;;;5.30;2.95;;;;;;;0.58;78.78;101157.19;4980604;28;20074;-69
2022/04/10 02:49:13;;;;;;;5.47;2.75;;;;;;;0.54;79.39;101164.28;4981037;28;20455;-70
2022/04/10 02:51:38;;;;;;;6.03;2.90;;;;;;;0.52;79.25;101155.69;4972657;28;20127;-69
2022/04/10 02:54:04;;;;;;;6.25;3.35;;;;;;;0.49;79.22;101161.88;4947115;28;20099;-69
2022/04/10 02:56:29;;;;;;;4.60;3.33;;;;;;;0.46;80.11;101167.19;4949307;28;20015;-69
2022/04/10 02:58:55;;;;;;;7.03;3.17;;;;;;;0.51;79.81;101167.84;4956813;28;20026;-69
2022/04/10 03:01:20;;;;;;;4.53;2.92;;;;;;;0.61;79.52;101164.91;4951212;28;21038;-71
2022/04/10 03:03:45;;;;;;;3.83;3.20;;;;;;;0.65;79.85;101177.72;4955278;28;20953;-70
2022/04/10 03:06:11;;;;;;;4.05;3.20;;;;;;;0.66;79.89;101182.03;4937388;28;20553;-70
2022/04/10 03:08:36;;;;;;;5.10;2.97;;;;;;;0.68;80.09;101177.59;4969180;28;20034;-69
2022/04/10 03:11:03;;;;;;;4.43;3.55;;;;;;;0.71;80.19;101181.00;4954480;28;20057;-70
2022/04/10 03:13:29;;;;;;;4.38;3.28;;;;;;;0.88;80.13;101195.94;4938753;28;20037;-70
2022/04/10 03:15:54;;;;;;;5.15;3.35;;;;;;;1.07;79.31;101182.97;4936282;28;20019;-70
2022/04/10 03:18:20;;;;;;;5.97;3.30;;;;;;;1.03;79.87;101188.31;4935107;28;20970;-70
2022/04/10 03:20:45;;;;;;;5.90;3.60;;;;;;;1.03;80.10;101193.53;4929061;28;20014;-71
2022/04/10 03:23:10;;;;;;;3.60;3.22;;;;;;;1.03;80.34;101185.72;4943199;28;20010;-71
2022/04/10 03:25:36;;;;;;;8.50;3.50;;;;;;;1.10;79.80;101190.66;4959655;28;20048;-68
2022/04/10 03:28:01;;;;;;;8.30;3.58;;;;;;;1.12;80.02;101196.66;4951573;28;20880;-72
2022/04/10 03:30:27;;;;;;;8.02;3.60;;;;;;;1.07;80.45;101190.78;4955182;28;20485;-71
2022/04/10 03:32:52;;;;;;;5.05;3.47;;;;;;;1.08;80.79;101195.09;4962713;28;20990;-71
2022/04/10 03:35:17;;;;;;;4.30;3.35;;;;;;;1.15;80.72;101193.94;4949435;28;20215;-71
2022/04/10 03:37:43;;;;;;;4.50;3.70;;;;;;;1.13;80.87;101188.78;4954723;28;20014;-71
2022/04/10 03:40:09;;;;;;;5.50;3.53;;;;;;;1.16;80.39;101203.44;4952739;28;20084;-70
2022/04/10 03:42:39;;;;;;;4.68;3.17;;;;;;;1.18;80.60;101204.22;4965630;28;20432;-71
2022/04/10 03:45:06;;;;;;;7.18;3.30;;;;;;;1.19;80.79;101203.31;4942234;28;20018;-70
2022/04/10 03:47:32;;;;;;;4.18;3.40;;;;;;;1.13;80.75;101204.41;4955974;28;20019;-70
2022/04/10 03:49:57;;;;;;;3.78;3.47;;;;;;;1.06;80.94;101207.34;4949106;28;20018;-69
2022/04/10 03:52:22;;;;;;;5.50;3.60;;;;;;;1.10;81.36;101201.94;4968205;28;20029;-70
2022/04/10 03:54:48;;;;;;;6.50;3.47;;;;;;;1.13;80.91;101208.75;4956610;28;20731;-70
2022/04/10 03:57:13;;;;;;;4.80;3.25;;;;;;;1.12;81.21;101202.72;4962631;28;20144;-70
2022/04/10 03:59:38;;;;;;;5.03;3.38;;;;;;;1.14;81.02;101220.91;4957378;28;20135;-69
2022/04/10 04:02:04;;;;;;;5.55;3.50;;;;;;;1.13;81.34;101220.06;4948457;28;20075;-68
2022/04/10 04:04:29;;;;;;;5.47;3.60;;;;;;;1.15;81.11;101218.22;4938436;28;20018;-71
2022/04/10 04:06:55;;;;;;;4.75;3.70;;;;;;;1.05;81.42;101216.09;4951670;28;20037;-71
2022/04/10 04:09:20;;;;;;;3.83;3.35;;;;;;;1.09;81.22;101222.88;4938592;28;20976;-70
2022/04/10 04:11:45;;;;;;;7.65;3.90;;;;;;;1.19;81.14;101226.78;4955452;28;20438;-72
2022/04/10 04:14:12;;;;;;;4.53;3.65;;;;;;;1.07;81.17;101224.66;4953298;28;20315;-71
2022/04/10 04:16:37;;;;;;;7.35;3.92;;;;;;;1.07;80.99;101232.50;4936098;28;20069;-70
2022/04/10 04:19:02;;;;;;;4.63;3.53;;;;;;;1.04;81.08;101225.63;4951346;28;20041;-70
2022/04/10 04:21:28;;;;;;;5.35;3.67;;;;;;;1.09;80.83;101239.34;4958962;28;20025;-70
2022/04/10 04:23:53;;;;;;;5.75;3.42;;;;;;;1.11;80.88;101236.66;4971115;28;20564;-71
2022/04/10 04:26:18;;;;;;;5.97;3.72;;;;;;;1.03;80.67;101248.25;4971528;28;20503;-71
2022/04/10 04:28:44;;;;;;;5.70;3.85;;;;;;;0.92;80.63;101247.84;4967669;28;20014;-71
2022/04/10 04:31:09;;;;;;;4.55;3.63;;;;;;;0.90;80.66;101248.81;4968938;28;20102;-71
2022/04/10 04:33:34;;;;;;;4.60;3.90;;;;;;;0.79;80.85;101244.03;4951300;28;20035;-70
2022/04/10 04:36:00;;;;;;;6.88;3.90;;;;;;;0.80;80.87;101256.16;4969289;28;20324;-69
2022/04/10 04:38:25;;;;;;;7.63;3.90;;;;;;;0.75;80.87;101247.66;4952667;28;20132;-69
2022/04/10 04:40:51;;;;;;;3.53;3.30;;;;;;;0.76;80.76;101267.59;4953937;28;20710;-70
2022/04/10 04:43:16;;;;;;;6.97;4.22;;;;;;;0.64;80.74;101248.94;4955327;28;20203;-70
2022/04/10 04:45:41;;;;;;;8.68;5.03;;;;;;;0.65;80.92;101266.28;4928325;28;20098;-70
2022/04/10 04:48:07;;;;;;;4.97;4.57;;;;;;;0.70;80.69;101265.25;4944993;28;20018;-71
2022/04/10 04:50:32;;;;;;;4.65;3.97;;;;;;;0.63;80.67;101270.69;4946689;28;20019;-70
2022/04/10 04:52:58;;;;;;;5.72;4.60;;;;;;;0.60;80.64;101273.41;4961792;28;20038;-69
2022/04/10 04:55:23;;;;;;;5.40;4.30;;;;;;;0.60;80.57;101273.41;4951858;28;20534;-70
2022/04/10 04:57:48;;;;;;;5.90;4.00;;;;;;;0.50;80.69;101275.53;4954032;28;20166;-70
2022/04/10 05:00:14;;;;;;;6.38;4.03;;;;;;;0.42;81.15;101268.91;4945495;28;20022;-70
2022/04/10 05:02:40;;;;;;;4.90;4.07;;;;;;;0.43;81.09;101276.66;4940436;28;20015;-69
2022/04/10 05:05:06;;;;;;;5.80;3.78;;;;;;;0.44;81.31;101272.31;4932716;28;20030;-70
2022/04/10 05:07:31;;;;;;;6.00;3.63;;;;;;;0.48;81.32;101284.28;4932772;28;20473;-70
2022/04/10 05:09:57;;;;;;;6.85;4.03;;;;;;;0.57;80.62;101283.94;4914882;28;20145;-71
2022/04/10 05:12:23;;;;;;;8.35;4.20;;;;;;;0.47;80.82;101278.25;4915309;28;20005;-70
2022/04/10 05:14:49;;;;;;;6.70;4.05;;;;;;;0.48;80.69;101286.91;4931903;28;20035;-69
2022/04/10 05:17:14;;;;;;;4.70;3.80;;;;;;;0.49;81.44;101284.25;4931005;28;20949;-70
2022/04/10 05:19:39;;;;;;;6.38;4.10;;;;;;;0.53;81.38;101290.19;4948194;28;20927;-70
2022/04/10 05:22:05;;;;;;;5.22;4.53;;;;;;;0.54;81.33;101289.28;4929086;28;20022;-70
2022/04/10 05:24:30;;;;;;;5.35;4.15;;;;;;;0.57;81.76;101289.16;4947217;28;20110;-71
2022/04/10 05:26:56;;;;;;;6.40;4.35;;;;;;;0.63;81.96;101288.91;4950516;28;20395;-71
2022/04/10 05:29:21;;;;;;;5.47;4.15;;;;;;;0.74;82.33;101291.09;4951528;28;20025;-69
2022/04/10 05:31:46;;;;;;;5.15;4.25;;;;;;;0.83;81.98;101292.50;4961552;28;20935;-71
2022/04/10 05:34:12;;;;;;;6.38;5.28;;;;;;;0.82;82.32;101298.63;4948144;28;20356;-70
2022/04/10 05:36:37;;;;;;;7.32;5.30;;;;;;;0.93;82.51;101301.66;4930961;28;20765;-70
2022/04/10 05:39:02;;;;;;;4.93;4.38;;;;;;;1.04;81.99;101303.81;4965282;28;20161;-70
2022/04/10 05:41:28;;;;;;;5.00;4.50;;;;;;;1.01;82.67;101310.00;4933432;28;20084;-71
2022/04/10 05:43:53;;;;;;;6.97;4.50;;;;;;;1.08;82.34;101301.97;4952574;28;20293;-70
2022/04/10 05:46:19;;;;;;;5.28;4.53;;;;;;;1.14;82.22;101309.53;4948209;28;20183;-70
2022/04/10 05:48:46;;;;;;;5.55;4.80;;;;;;;1.10;82.21;101306.19;4958113;28;20010;-70
2022/04/10 05:51:11;;;;;;;5.30;4.80;;;;;;;1.04;82.74;101301.22;4928622;28;20023;-71
2022/04/10 05:53:36;;;;;;;6.50;4.78;;;;;;;1.12;82.69;101311.34;4950345;28;20193;-70
2022/04/10 05:56:02;;;;;;;7.05;4.60;;;;;;;1.17;82.77;101309.38;4959383;28;21354;-71
2022/04/10 05:58:27;;;;;;;8.38;5.00;;;;;;;1.20;82.73;101320.56;4946552;28;20045;-72
2022/04/10 06:00:55;;;;;;;7.47;4.90;;;;;;;1.28;82.53;101320.22;4936704;28;19999;-72
2022/04/10 06:03:21;;;;;;;5.38;4.88;;;;;;;1.27;82.26;101315.94;4944391;28;20084;-71
2022/04/10 06:05:46;;;;;;;7.25;4.45;;;;;;;1.40;82.16;101312.81;4968043;28;20023;-74
2022/04/10 06:08:11;;;;;;;5.40;4.88;;;;;;;1.37;81.85;101327.69;4966285;28;20848;-71
2022/04/10 06:10:37;;;;;;;6.15;5.00;;;;;;;1.46;81.95;101326.44;4951837;28;20014;-71
2022/04/10 06:13:09;;;;;;;7.90;4.68;;;;;;;1.64;81.12;101324.00;4967668;28;20100;-71
2022/04/10 06:15:34;;;;;;;6.45;5.05;;;;;;;1.68;81.33;101323.78;4967816;28;20022;-70
2022/04/10 06:17:59;;;;;;;7.50;5.20;;;;;;;1.68;81.45;101331.63;4967632;28;20761;-69
2022/04/10 06:20:25;;;;;;;9.48;5.00;;;;;;;1.79;81.73;101332.91;4957510;28;20238;-70
2022/04/10 06:22:50;;;;;;;6.65;5.20;;;;;;;1.84;81.55;101325.75;4960635;28;20024;-72
2022/04/10 06:25:15;;;;;;;6.63;5.00;;;;;;;2.01;81.06;101323.25;4958254;28;20906;-70
2022/04/10 06:27:41;;;;;;;8.30;6.30;;;;;;;2.12;80.34;101332.38;4955516;28;20041;-70
2022/04/10 06:30:06;;;;;;;6.72;5.20;;;;;;;2.33;79.99;101339.25;4959615;28;20333;-70
2022/04/10 06:32:32;;;;;;;6.35;5.22;;;;;;;2.41;79.65;101333.66;4958165;28;20111;-70
2022/04/10 06:34:57;;;;;;;8.65;5.80;;;;;;;2.48;79.29;101336.84;4966704;28;20876;-71
2022/04/10 06:37:22;;;;;;;7.32;5.90;;;;;;;2.61;78.70;101339.75;4960356;28;20479;-71
2022/04/10 06:39:48;;;;;;;8.80;5.45;;;;;;;2.75;78.47;101351.28;4959311;28;20026;-71
2022/04/10 06:42:13;;;;;;;7.60;5.65;;;;;;;2.93;77.45;101348.69;4937129;28;20079;-71
2022/04/10 06:44:40;;;;;;;8.25;5.50;;;;;;;3.02;76.30;101343.06;4974797;28;20030;-70
2022/04/10 06:47:06;;;;;;;8.40;5.40;;;;;;;3.19;76.45;101344.03;4955173;28;20901;-71
2022/04/10 06:49:31;;;;;;;9.02;5.20;;;;;;;3.29;75.71;101350.50;4971452;28;20026;-71
2022/04/10 06:51:56;;;;;;;6.75;5.50;;;;;;;3.36;75.52;101357.13;4952868;28;20026;-71
2022/04/10 06:54:22;;;;;;;8.38;5.68;;;;;;;3.52;75.02;101351.13;4974390;28;20046;-70
2022/04/10 06:56:47;;;;;;;7.03;5.43;;;;;;;3.60;74.75;101359.44;4972182;28;20018;-70
2022/04/10 06:59:13;;;;;;;7.22;5.70;;;;;;;3.76;73.59;101349.03;4975692;28;20542;-69
2022/04/10 07:01:38;;;;;;;13.55;6.15;;;;;;;3.82;73.86;101353.13;4933520;28;20185;-71
2022/04/10 07:04:04;;;;;;;7.93;5.97;;;;;;;3.86;73.91;101355.50;4954417;28;20026;-71
2022/04/10 07:06:29;;;;;;;7.18;5.45;;;;;;;4.00;73.17;101357.41;4971595;28;20127;-70
2022/04/10 07:08:55;;;;;;;10.35;6.28;;;;;;;4.19;74.55;101351.22;4968514;28;20910;-69
2022/04/10 07:11:20;;;;;;;8.88;5.80;;;;;;;4.32;72.94;101352.28;4954155;28;20695;-70
2022/04/10 07:13:46;;;;;;;8.90;6.18;;;;;;;4.42;72.26;101357.88;4952293;28;20046;-72
2022/04/10 07:16:11;;;;;;;8.52;6.50;;;;;;;4.51;71.50;101361.78;4951564;28;20010;-72
2022/04/10 07:18:37;;;;;;;9.35;6.15;;;;;;;4.60;70.75;101361.28;4942013;28;20168;-71
2022/04/10 07:21:02;;;;;;;9.25;6.40;;;;;;;4.57;70.42;101366.66;4954903;28;20784;-68
2022/04/10 07:23:43;;;;;;;10.80;6.22;;;;;;;4.64;70.12;101363.66;4932735;28;20881;-70
2022/04/10 07:26:09;;;;;;;8.93;6.30;;;;;;;4.69;70.42;101363.38;4961033;28;20002;-71
2022/04/10 07:28:37;;;;;;;8.60;6.05;;;;;;;4.85;70.17;101376.53;4972139;28;20075;-69
2022/04/10 07:31:04;;;;;;;8.63;6.30;;;;;;;5.05;70.13;101372.81;4955972;28;20003;-70
2022/04/10 07:33:29;;;;;;;10.90;6.47;;;;;;;5.19;69.72;101376.41;4960818;28;20030;-71
2022/04/10 07:35:54;;;;;;;6.82;5.85;;;;;;;5.50;69.31;101378.16;4965590;28;20844;-69
2022/04/10 07:38:21;;;;;;;7.47;5.97;;;;;;;5.76;67.63;101374.00;4962790;28;20131;-71
2022/04/10 07:40:46;;;;;;;5.53;4.95;;;;;;;6.00;65.26;101374.34;4964931;28;20411;-71
2022/04/10 07:43:11;;;;;;;6.63;5.07;;;;;;;6.04;65.95;101372.41;4961333;28;20397;-71
2022/04/10 07:48:21;;;;;;;8.88;4.50;;;;;;;6.50;64.27;101380.13;4966076;28;20439;-70
2022/04/10 07:50:46;;;;;;;7.80;5.13;;;;;;;6.75;63.69;101389.09;4945139;28;20034;-70
2022/04/10 07:53:12;;;;;;;6.50;4.63;;;;;;;6.91;63.02;101385.50;4958753;28;20941;-69
2022/04/10 07:55:37;;;;;;;6.78;4.90;;;;;;;6.98;63.79;101384.19;4964399;28;20977;-70
2022/04/10 07:58:02;;;;;;;4.80;4.30;;;;;;;7.31;61.91;101393.50;4945194;28;20030;-70
2022/04/10 08:00:32;;;;;;;6.88;4.88;;;;;;;7.50;61.30;101394.00;4950510;28;20545;-71
2022/04/10 08:02:59;;;;;;;7.75;4.85;;;;;;;7.49;60.59;101397.56;4947683;28;20011;-70
2022/04/10 08:05:25;;;;;;;9.20;4.93;;;;;;;7.46;60.33;101391.63;4947885;28;20129;-71
2022/04/10 08:07:50;;;;;;;6.25;4.78;;;;;;;7.49;60.90;101399.38;4941151;28;20019;-69
2022/04/10 08:10:16;;;;;;;8.02;5.05;;;;;;;7.53;61.24;101400.81;4960032;28;20015;-70
2022/04/10 08:12:41;;;;;;;6.75;5.10;;;;;;;7.53;60.81;101412.22;4959714;28;20037;-70
2022/04/10 08:15:07;;;;;;;4.85;4.40;;;;;;;7.53;60.91;101409.59;4939408;28;20121;-70
2022/04/10 08:17:33;;;;;;;7.85;4.50;;;;;;;7.66;61.28;101408.78;4946679;28;20026;-69
2022/04/10 08:19:58;;;;;;;5.95;4.80;;;;;;;7.55;60.78;101418.22;4965623;28;20924;-69
2022/04/10 08:22:26;;;;;;;7.70;4.70;;;;;;;7.74;60.86;101419.63;4960514;28;20003;-69
2022/04/10 08:24:52;;;;;;;5.82;4.50;;;;;;;7.80;59.98;101419.25;4953964;28;20027;-70
2022/04/10 08:27:17;;;;;;;7.78;4.80;;;;;;;8.15;58.78;101417.81;4938702;28;20592;-70
2022/04/10 08:29:43;;;;;;;6.38;4.72;;;;;;;8.01;59.06;101422.25;4965019;28;20787;-69
2022/04/10 08:32:08;;;;;;;5.97;4.70;;;;;;;8.05;59.22;101425.50;4955662;28;20014;-71
2022/04/10 08:34:33;;;;;;;6.00;4.28;;;;;;;8.29;58.68;101420.38;4967527;28;20542;-71
2022/04/10 08:37:05;;;;;;;6.72;4.53;;;;;;;8.44;58.35;101418.44;4954100;28;20038;-70
2022/04/10 08:39:33;;;;;;;11.10;4.80;;;;;;;8.44;58.19;101413.19;4949331;28;20141;-71
2022/04/10 08:42:01;;;;;;;9.57;4.90;;;;;;;8.50;57.37;101414.56;4954242;28;20076;-69
2022/04/10 08:44:26;;;;;;;6.50;4.30;;;;;;;8.10;58.30;101419.94;4929191;28;20217;-70
2022/04/10 08:46:51;;;;;;;5.85;3.15;;;;;;;8.14;56.36;101427.53;4937384;28;20439;-70
2022/04/10 08:49:17;;;;;;;6.45;2.53;;;;;;;8.19;53.35;101435.09;4957953;28;20024;-71
2022/04/10 08:51:42;;;;;;;3.97;2.45;;;;;;;8.61;54.05;101429.66;4967996;28;20019;-69
2022/04/10 08:54:08;;;;;;;4.30;2.40;;;;;;;9.14;52.14;101425.00;4977165;28;20500;-71
2022/04/10 08:56:33;;;;;;;7.70;2.47;;;;;;;9.16;52.17;101431.00;4979399;28;20249;-71
2022/04/10 08:58:58;;;;;;;5.25;2.50;;;;;;;8.80;51.38;101431.84;4960344;28;20015;-70
2022/04/10 09:01:24;;;;;;;5.22;3.03;;;;;;;8.74;52.14;101430.47;4968614;28;20007;-70
2022/04/10 09:03:49;;;;;;;4.70;3.00;;;;;;;8.78;53.27;101434.59;4969249;28;20071;-69
2022/04/10 09:06:15;;;;;;;6.22;3.00;;;;;;;9.00;53.41;101427.81;4980494;28;20018;-70
2022/04/10 09:08:40;;;;;;;4.15;2.85;;;;;;;9.03;53.57;101432.88;4960572;28;20057;-69
2022/04/10 09:11:09;;;;;;;5.57;2.70;;;;;;;9.37;51.50;101433.06;4956053;28;20018;-70
2022/04/10 09:13:47;;;;;;;3.72;2.50;;;;;;;9.88;49.94;101438.06;4955352;28;20027;-70
2022/04/10 09:16:22;;;;;;;3.00;2.58;;;;;;;10.28;50.41;101440.34;4952693;28;20049;-69
2022/04/10 09:18:49;;;;;;;3.40;2.80;;;;;;;10.93;50.38;101430.06;4958237;28;20053;-71
2022/04/10 09:21:15;;;;;;;7.60;3.20;;;;;;;11.19;48.00;101440.38;4943354;28;20030;-71
2022/04/10 09:23:41;;;;;;;4.13;2.55;;;;;;;11.31;45.31;101438.56;4941706;28;20528;-71
2022/04/10 09:26:06;;;;;;;4.57;3.10;;;;;;;11.36;45.29;101433.69;4957239;28;20022;-70
2022/04/10 09:28:48;;;;;;;6.22;2.70;;;;;;;11.31;45.57;101431.44;4974761;28;20765;-70
2022/04/10 09:31:24;;;;;;;4.95;2.40;;;;;;;11.52;46.39;101428.84;4946016;28;20006;-70
2022/04/10 09:33:50;;;;;;;5.25;2.75;;;;;;;11.54;44.27;101427.88;4971298;28;20432;-70
2022/04/10 09:36:42;;;;;;;4.20;2.60;;;;;;;12.01;43.33;101437.22;4948585;28;20798;-69
2022/04/10 09:39:15;;;;;;;3.92;2.78;;;;;;;12.59;42.82;101427.88;4963760;28;20056;-71
2022/04/10 09:41:42;;;;;;;5.07;2.50;;;;;;;13.15;42.54;101431.00;4970912;28;20185;-69
2022/04/10 09:44:12;;;;;;;2.65;1.73;;;;;;;13.07;37.73;101423.69;4941050;28;20030;-71
2022/04/10 09:46:38;;;;;;;3.17;1.67;;;;;;;12.99;39.42;101421.72;4940443;28;20007;-70
2022/04/10 09:49:05;;;;;;;3.45;2.08;;;;;;;13.73;37.98;101435.56;4959010;28;20043;-72
2022/04/10 09:51:30;;;;;;;4.72;1.90;;;;;;;13.13;39.78;101430.28;4975780;28;20238;-71
2022/04/10 09:54:04;;;;;;;6.05;2.00;;;;;;;12.22;39.45;101431.03;4943521;28;20057;-71
2022/04/10 09:56:29;;;;;;;2.70;1.90;;;;;;;11.51;41.97;101421.00;4961989;28;20060;-71
2022/04/10 09:58:56;;;;;;;2.75;2.15;;;;;;;11.24;42.98;101419.66;4952651;28;20019;-71
2022/04/10 10:01:21;;;;;;;4.78;2.25;;;;;;;10.97;43.94;101420.91;4948622;28;20035;-70
2022/04/10 10:03:46;;;;;;;4.15;1.73;;;;;;;10.62;42.57;101427.19;4964985;28;20015;-72
2022/04/10 10:06:12;;;;;;;3.55;2.03;;;;;;;10.37;44.14;101422.13;4964476;28;20018;-72
2022/04/10 10:08:38;;;;;;;4.15;1.65;;;;;;;10.36;43.47;101425.72;4938280;28;20003;-71
2022/04/10 10:11:03;;;;;;;2.38;1.60;;;;;;;10.52;43.88;101431.53;4945087;28;20992;-71
2022/04/10 10:13:28;;;;;;;2.75;1.90;;;;;;;10.55;44.17;101422.50;4949663;28;20167;-72
2022/04/10 10:15:57;;;;;;;3.95;1.63;;;;;;;10.59;45.12;101427.44;4941696;28;20927;-71
2022/04/10 10:18:23;;;;;;;4.43;1.77;;;;;;;10.39;44.24;101426.34;4942782;28;20387;-71
2022/04/10 10:20:48;;;;;;;3.58;1.70;;;;;;;10.35;44.42;101414.31;4955444;28;20023;-71
2022/04/10 10:23:14;;;;;;;4.13;2.00;;;;;;;10.31;45.65;101413.66;4935258;28;20077;-72
2022/04/10 10:25:52;;;;;;;4.43;2.10;;;;;;;10.18;44.42;101426.16;4961051;28;20014;-71
2022/04/10 10:28:39;;;;;;;1.85;1.75;;;;;;;10.41;43.98;101415.63;4969650;28;20909;-71
2022/04/10 10:31:44;;;;;;;4.68;1.65;;;;;;;10.12;44.10;101421.31;4966563;28;20018;-71
2022/04/10 10:34:09;;;;;;;1.58;1.42;;;;;;;10.24;43.18;101417.75;4956395;28;20014;-71
2022/04/10 10:36:34;;;;;;;2.90;1.73;;;;;;;10.02;43.75;101418.53;4947911;28;20046;-71
2022/04/10 10:39:00;;;;;;;3.40;1.88;;;;;;;9.89;42.65;101415.16;4943866;28;20041;-71
2022/04/10 10:41:25;;;;;;;3.30;1.70;;;;;;;9.78;43.05;101413.31;4949913;28;20018;-71
2022/04/10 10:43:51;;;;;;;2.83;1.60;;;;;;;9.91;43.57;101408.78;4977828;28;20911;-71
2022/04/10 10:46:32;;;;;;;2.85;1.63;;;;;;;10.34;44.59;101401.19;4958856;28;20102;-72
2022/04/10 10:49:14;;;;;;;2.13;1.65;;;;;;;10.73;42.99;101410.47;4959308;28;20155;-73
2022/04/10 10:51:46;;;;;;;2.10;1.75;;;;;;;11.23;41.66;101412.66;4943389;28;20011;-72
2022/04/10 10:54:21;;;;;;;2.65;1.70;;;;;;;11.63;40.88;101414.72;4954192;28;20084;-70
2022/04/10 10:56:46;;;;;;;3.22;1.58;;;;;;;13.64;39.27;101415.97;4952416;28;20320;-70
2022/04/10 10:59:36;;;;;;;2.47;1.60;;;;;;;15.05;34.88;101395.63;4961033;28;20081;-72
2022/04/10 11:02:07;;;;;;;2.88;1.80;;;;;;;15.05;36.25;101405.47;4939567;28;20097;-72
2022/04/10 11:04:34;;;;;;;1.85;1.30;;;;;;;14.28;33.30;101410.94;4957826;28;20484;-73
2022/04/10 11:07:13;;;;;;;3.33;1.55;;;;;;;13.64;35.38;101407.16;4939858;28;20010;-72
2022/04/10 11:10:00;;;;;;;1.88;1.70;;;;;;;14.32;36.93;101406.19;4960140;28;20037;-70
2022/04/10 11:12:33;;;;;;;2.55;1.75;;;;;;;13.77;35.11;101405.03;4969362;28;20031;-73
2022/04/10 11:15:18;;;;;;;3.20;1.60;;;;;;;13.68;36.01;101412.03;4959481;28;20042;-73
2022/04/10 11:17:43;;;;;;;2.08;1.40;;;;;;;14.73;34.12;101412.06;4947866;28;21174;-73
2022/04/10 11:20:09;;;;;;;1.40;1.30;;;;;;;14.61;32.27;101406.09;4949240;28;20069;-69
2022/04/10 11:22:58;;;;;;;2.25;1.40;;;;;;;13.78;34.83;101405.88;4967593;28;20110;-72
2022/04/10 11:25:26;;;;;;;2.42;1.42;;;;;;;14.09;34.32;101410.03;4949389;28;20044;-71
2022/04/10 11:27:54;;;;;;;1.48;1.38;;;;;;;14.73;33.21;101404.91;4961610;28;20791;-71
2022/04/10 11:30:52;;;;;;;4.10;1.50;;;;;;;14.98;33.05;101407.88;4960069;28;20041;-72
2022/04/10 11:33:17;;;;;;;4.45;1.70;;;;;;;16.37;31.53;101406.56;4934703;28;20938;-71